createdAt,value
2022-09-07T00:01:50.853Z,64.54
2022-09-07T00:04:19.795Z,64.69
2022-09-07T00:06:48.722Z,64.86
2022-09-07T00:09:17.638Z,64.79
2022-09-07T00:11:47.031Z,64.98
2022-09-07T00:14:15.939Z,64.98
2022-09-07T00:16:44.794Z,65.04
2022-09-07T00:19:13.691Z,64.96
2022-09-07T00:21:42.651Z,65.05
2022-09-07T00:24:11.783Z,65.03
2022-09-07T00:26:40.738Z,65.06
2022-09-07T00:29:11.127Z,65.06
2022-09-07T00:31:40.079Z,65.08
2022-09-07T00:34:09.017Z,65.41
2022-09-07T00:36:37.926Z,65.47
2022-09-07T00:39:07.181Z,65.68
2022-09-07T00:41:36.050Z,65.64
2022-09-07T00:44:51.272Z,65.75
2022-09-07T00:47:24.964Z,65.78
2022-09-07T00:49:59.138Z,65.86
2022-09-07T00:52:31.167Z,65.80
2022-09-07T00:55:06.486Z,65.84
2022-09-07T00:57:37.798Z,66.21
2022-09-07T01:00:09.981Z,66.12
2022-09-07T01:02:39.955Z,66.09
2022-09-07T01:05:15.785Z,66.22
2022-09-07T01:07:45.937Z,66.42
2022-09-07T01:10:15.806Z,66.58
2022-09-07T01:12:44.727Z,66.72
2022-09-07T01:15:13.687Z,66.75
2022-09-07T01:17:55.959Z,66.76
2022-09-07T01:20:45.087Z,66.69
2022-09-07T01:23:49.679Z,66.96
2022-09-07T01:26:43.342Z,67.20
2022-09-07T01:29:19.892Z,67.09
2022-09-07T01:32:00.878Z,67.38
2022-09-07T01:34:30.495Z,67.31
2022-09-07T01:37:05.602Z,67.27
2022-09-07T01:39:43.706Z,67.41
2022-09-07T01:42:15.351Z,67.56
2022-09-07T01:44:50.102Z,67.85
2022-09-07T01:47:22.554Z,67.84
2022-09-07T01:49:55.358Z,67.62
2022-09-07T01:52:31.596Z,67.76
2022-09-07T01:55:06.850Z,67.81
2022-09-07T01:57:43.098Z,67.77
2022-09-07T02:00:18.506Z,67.90
2022-09-07T02:02:51.427Z,67.83
2022-09-07T02:05:23.570Z,68.04
2022-09-07T02:07:57.599Z,68.06
2022-09-07T02:10:33.362Z,67.85
2022-09-07T02:13:06.722Z,68.25
2022-09-07T02:15:44.651Z,68.27
2022-09-07T02:18:14.618Z,68.23
2022-09-07T02:20:48.527Z,68.20
2022-09-07T02:23:21.906Z,68.71
2022-09-07T02:25:54.664Z,68.38
2022-09-07T02:28:28.187Z,68.46
2022-09-07T02:30:57.182Z,68.82
2022-09-07T02:33:26.859Z,68.59
2022-09-07T02:35:56.674Z,68.61
2022-09-07T02:38:26.003Z,68.48
2022-09-07T02:40:57.208Z,68.68
2022-09-07T02:43:28.071Z,68.74
2022-09-07T02:46:17.840Z,68.73
2022-09-07T02:48:57.241Z,68.61
2022-09-07T02:51:35.273Z,68.80
2022-09-07T02:54:23.457Z,68.94
2022-09-07T02:56:58.860Z,68.88
2022-09-07T02:59:51.385Z,68.76
2022-09-07T03:02:29.079Z,69.01
2022-09-07T03:05:05.846Z,69.01
2022-09-07T03:07:42.185Z,69.09
2022-09-07T03:10:15.672Z,69.07
2022-09-07T03:12:46.074Z,69.24
2022-09-07T03:15:17.332Z,69.29
2022-09-07T03:18:18.136Z,69.17
2022-09-07T03:20:46.884Z,69.45
2022-09-07T03:23:15.279Z,69.65
2022-09-07T03:25:43.648Z,69.56
2022-09-07T03:28:12.098Z,69.43
2022-09-07T03:30:43.609Z,69.34
2022-09-07T03:33:12.198Z,69.51
2022-09-07T03:35:40.673Z,69.62
2022-09-07T03:38:09.134Z,69.76
2022-09-07T03:40:37.746Z,69.91
2022-09-07T03:43:06.217Z,69.80
2022-09-07T03:45:34.768Z,70.01
2022-09-07T03:48:03.820Z,69.85
2022-09-07T03:50:32.209Z,70.19
2022-09-07T03:53:00.715Z,69.95
2022-09-07T03:55:29.156Z,70.23
2022-09-07T03:57:57.556Z,70.16
2022-09-07T04:00:26.072Z,70.17
2022-09-07T04:02:54.597Z,70.16
2022-09-07T04:05:25.537Z,70.29
2022-09-07T04:07:53.970Z,70.40
2022-09-07T04:10:22.353Z,70.51
2022-09-07T04:12:50.865Z,70.42
2022-09-07T04:15:19.307Z,70.44
2022-09-07T04:17:47.795Z,70.45
2022-09-07T04:20:16.711Z,70.20
2022-09-07T04:22:51.390Z,70.34
2022-09-07T04:25:22.237Z,70.43
2022-09-07T04:27:50.936Z,70.52
2022-09-07T04:30:19.426Z,70.37
2022-09-07T04:32:48.134Z,70.60
2022-09-07T04:35:16.870Z,70.46
2022-09-07T04:37:45.867Z,70.53
2022-09-07T04:40:14.381Z,70.63
2022-09-07T04:42:43.160Z,70.58
2022-09-07T04:45:12.384Z,70.45
2022-09-07T04:47:46.012Z,70.31
2022-09-07T04:50:14.746Z,70.55
2022-09-07T04:52:43.155Z,70.53
2022-09-07T04:55:12.144Z,70.21
2022-09-07T04:57:42.489Z,70.09
2022-09-07T05:00:12.952Z,70.19
2022-09-07T05:02:41.406Z,69.93
2022-09-07T05:05:10.540Z,69.92
2022-09-07T05:07:39.481Z,69.88
2022-09-07T05:10:08.973Z,69.96
2022-09-07T05:12:37.477Z,70.14
2022-09-07T05:15:07.484Z,69.98
2022-09-07T05:17:36.741Z,70.15
2022-09-07T05:20:07.398Z,70.16
2022-09-07T05:22:40.363Z,70.12
2022-09-07T05:25:09.721Z,70.08
2022-09-07T05:27:38.143Z,69.70
2022-09-07T05:36:26.541Z,69.71
2022-09-07T05:38:57.817Z,69.83
2022-09-07T05:41:27.775Z,69.80
2022-09-07T05:46:45.121Z,69.62
2022-09-07T05:49:13.545Z,69.72
2022-09-07T05:51:42.073Z,69.71
2022-09-07T05:54:11.663Z,69.87
2022-09-07T05:56:41.208Z,69.65
2022-09-07T05:59:09.912Z,69.63
2022-09-07T06:01:38.388Z,69.88
2022-09-07T06:04:07.186Z,69.53
2022-09-07T06:06:38.410Z,69.63
2022-09-07T06:09:08.567Z,69.83
2022-09-07T06:11:37.034Z,69.64
2022-09-07T06:14:05.457Z,69.74
2022-09-07T06:16:34.727Z,69.54
2022-09-07T06:19:06.455Z,69.66
2022-09-07T06:21:37.053Z,69.76
2022-09-07T06:24:07.220Z,69.70
2022-09-07T06:26:35.642Z,69.62
2022-09-07T06:29:04.114Z,69.40
2022-09-07T06:31:32.737Z,69.49
2022-09-07T06:34:01.450Z,69.18
2022-09-07T06:36:31.165Z,69.24
2022-09-07T06:39:01.074Z,68.81
2022-09-07T06:44:21.146Z,68.75
2022-09-07T06:47:05.146Z,68.84
2022-09-07T06:49:33.814Z,68.53
2022-09-07T06:52:02.954Z,68.58
2022-09-07T06:57:19.840Z,68.47
2022-09-07T06:59:48.316Z,68.33
2022-09-07T07:02:16.677Z,68.06
2022-09-07T07:04:45.975Z,67.60
2022-09-07T07:07:14.426Z,67.25
2022-09-07T07:09:42.943Z,67.00
2022-09-07T07:12:11.733Z,66.94
2022-09-07T07:14:44.704Z,66.52
2022-09-07T07:17:13.701Z,66.37
2022-09-07T07:19:42.164Z,66.33
2022-09-07T07:24:59.069Z,66.22
2022-09-07T07:27:31.124Z,66.01
2022-09-07T07:29:59.540Z,65.97
2022-09-07T07:32:28.015Z,65.62
2022-09-07T07:34:56.399Z,65.12
2022-09-07T07:37:27.994Z,64.75
2022-09-07T07:42:45.230Z,64.11
2022-09-07T07:48:04.189Z,63.45
2022-09-07T07:50:33.538Z,63.18
2022-09-07T07:55:51.345Z,62.40
2022-09-07T07:58:20.612Z,62.14
2022-09-07T08:00:56.977Z,61.83
2022-09-07T08:03:26.001Z,61.24
2022-09-07T08:05:55.260Z,61.10
2022-09-07T08:08:24.383Z,60.53
2022-09-07T08:10:52.943Z,59.96
2022-09-07T08:13:21.706Z,60.29
2022-09-07T08:15:50.391Z,60.16
2022-09-07T08:18:18.927Z,59.58
2022-09-07T08:20:47.351Z,58.85
2022-09-07T08:23:16.567Z,58.77
2022-09-07T08:25:51.343Z,58.11
2022-09-07T08:28:20.472Z,57.54
2022-09-07T08:30:51.776Z,57.29
2022-09-07T08:33:21.030Z,56.67
2022-09-07T08:36:00.251Z,56.38
2022-09-07T08:38:30.183Z,54.89
2022-09-07T08:41:02.288Z,53.90
2022-09-07T08:43:49.076Z,53.53
2022-09-07T08:46:31.209Z,53.28
2022-09-07T08:49:02.567Z,53.02
2022-09-07T08:51:36.832Z,52.47
2022-09-07T08:54:06.431Z,51.99
2022-09-07T08:56:39.320Z,51.97
2022-09-07T08:59:17.023Z,51.22
2022-09-07T09:05:16.284Z,51.08
2022-09-07T09:06:10.906Z,51.25
2022-09-07T09:07:30.557Z,50.62
2022-09-07T09:10:16.615Z,50.24
2022-09-07T09:13:01.914Z,49.39
2022-09-07T09:15:42.710Z,49.18
2022-09-07T09:18:26.206Z,47.77
2022-09-07T09:20:56.833Z,47.70
2022-09-07T09:23:27.984Z,47.19
2022-09-07T09:25:59.329Z,46.63
2022-09-07T09:28:30.327Z,46.20
2022-09-07T09:31:01.100Z,46.09
2022-09-07T09:33:29.671Z,45.75
2022-09-07T09:36:01.908Z,46.28
2022-09-07T09:38:33.504Z,46.36
2022-09-07T09:41:05.805Z,45.85
2022-09-07T09:43:43.727Z,45.59
2022-09-07T09:46:24.230Z,45.20
2022-09-07T09:48:59.319Z,45.15
2022-09-07T09:54:25.455Z,45.52
2022-09-07T09:56:54.132Z,45.71
2022-09-07T10:05:34.140Z,45.57
2022-09-07T10:08:04.019Z,45.30
2022-09-07T10:10:32.408Z,45.59
2022-09-07T10:13:00.833Z,45.44
2022-09-07T10:15:39.924Z,45.55
2022-09-07T10:18:20.563Z,45.27
2022-09-07T10:20:49.396Z,44.33
2022-09-07T10:23:23.737Z,44.47
2022-09-07T10:25:52.391Z,44.44
2022-09-07T10:28:22.550Z,44.09
2022-09-07T10:31:15.087Z,44.10
2022-09-07T10:36:52.118Z,43.60
2022-09-07T10:39:26.553Z,43.43
2022-09-07T10:42:01.459Z,43.31
2022-09-07T10:44:42.498Z,43.16
2022-09-07T10:47:25.195Z,43.59
2022-09-07T10:52:55.695Z,43.75
2022-09-07T10:55:31.264Z,42.80
2022-09-07T10:58:14.203Z,42.25
2022-09-07T11:00:57.015Z,42.43
2022-09-07T11:03:43.011Z,41.79
2022-09-07T11:06:19.883Z,41.70
2022-09-07T11:09:18.510Z,42.36
2022-09-07T11:12:02.014Z,42.54
2022-09-07T11:14:36.996Z,42.92
2022-09-07T11:17:15.382Z,43.23
2022-09-07T11:19:50.153Z,42.75
2022-09-07T11:22:30.365Z,42.88
2022-09-07T11:28:01.712Z,42.19
2022-09-07T11:30:34.283Z,42.04
2022-09-07T11:33:12.628Z,41.80
2022-09-07T11:35:48.670Z,42.16
2022-09-07T11:38:25.574Z,42.71
2022-09-07T11:41:07.501Z,42.19
2022-09-07T11:43:41.520Z,42.24
2022-09-07T11:46:14.404Z,41.96
2022-09-07T11:48:47.844Z,42.08
2022-09-07T11:51:22.463Z,42.05
2022-09-07T11:53:57.080Z,42.54
2022-09-07T11:56:29.846Z,42.81
2022-09-07T11:59:37.134Z,42.63
2022-09-07T12:02:58.333Z,42.16
2022-09-07T12:05:43.302Z,41.14
2022-09-07T12:08:29.435Z,40.83
2022-09-07T12:11:13.286Z,40.88
2022-09-07T12:13:59.826Z,40.63
2022-09-07T12:16:56.778Z,41.02
2022-09-07T12:19:26.845Z,40.98
2022-09-07T12:21:57.463Z,41.15
2022-09-07T12:24:42.805Z,41.44
2022-09-07T12:27:26.754Z,41.11
2022-09-07T12:30:28.443Z,41.62
2022-09-07T12:33:18.512Z,41.87
2022-09-07T12:35:47.258Z,41.77
2022-09-07T12:39:00.350Z,41.22
2022-09-07T12:41:43.625Z,41.39
2022-09-07T12:44:33.446Z,41.87
2022-09-07T12:47:18.626Z,41.48
2022-09-07T12:50:05.978Z,41.53
2022-09-07T12:53:06.951Z,41.15
2022-09-07T12:58:56.505Z,42.13
2022-09-07T13:01:35.990Z,42.46
2022-09-07T13:04:25.875Z,42.30
2022-09-07T13:07:20.426Z,42.03
2022-09-07T13:09:56.443Z,42.38
2022-09-07T13:15:42.867Z,42.41
2022-09-07T13:18:27.026Z,42.26
2022-09-07T13:21:33.611Z,42.00
2022-09-07T13:24:46.064Z,42.05
2022-09-07T13:27:41.325Z,41.47
2022-09-07T13:30:37.511Z,41.52
2022-09-07T13:33:41.008Z,41.30
2022-09-07T13:36:21.265Z,40.85
2022-09-07T13:38:51.848Z,40.23
2022-09-07T13:41:23.121Z,40.23
2022-09-07T13:44:00.979Z,40.38
2022-09-07T13:46:40.928Z,40.44
2022-09-07T13:49:24.371Z,39.90
2022-09-07T13:52:00.547Z,39.43
2022-09-07T13:54:52.676Z,39.50
2022-09-07T13:57:28.186Z,39.33
2022-09-07T13:59:57.109Z,39.25
2022-09-07T14:02:31.698Z,38.76
2022-09-07T14:05:01.990Z,39.04
2022-09-07T14:07:31.989Z,39.77
2022-09-07T14:10:18.975Z,39.44
2022-09-07T14:12:50.322Z,39.05
2022-09-07T14:15:22.116Z,39.05
2022-09-07T14:18:01.813Z,38.30
2022-09-07T14:20:31.750Z,38.82
2022-09-07T14:23:00.587Z,38.97
2022-09-07T14:25:29.743Z,38.70
2022-09-07T14:27:59.809Z,38.96
2022-09-07T14:30:32.450Z,38.96
2022-09-07T14:33:03.271Z,38.66
2022-09-07T14:35:34.827Z,38.71
2022-09-07T14:38:14.583Z,38.53
2022-09-07T14:40:44.944Z,38.25
2022-09-07T14:43:29.684Z,38.22
2022-09-07T14:46:16.067Z,38.02
2022-09-07T14:48:48.225Z,38.38
2022-09-07T14:51:32.679Z,38.67
2022-09-07T14:54:06.450Z,38.66
2022-09-07T14:56:36.916Z,38.84
2022-09-07T14:59:34.625Z,38.48
2022-09-07T15:02:24.249Z,37.96
2022-09-07T15:05:17.934Z,38.31
2022-09-07T15:07:48.624Z,38.74
2022-09-07T15:10:31.735Z,39.33
2022-09-07T15:13:02.322Z,39.01
2022-09-07T15:15:33.529Z,39.48
2022-09-07T15:18:08.438Z,40.10
2022-09-07T15:20:40.217Z,39.55
2022-09-07T15:23:12.436Z,39.52
2022-09-07T15:25:45.453Z,39.49
2022-09-07T15:34:09.582Z,40.36
2022-09-07T15:36:48.739Z,40.19
2022-09-07T15:39:19.925Z,40.12
2022-09-07T15:41:49.320Z,40.28
2022-09-07T15:44:22.830Z,40.72
2022-09-07T15:49:51.385Z,39.47
2022-09-07T15:52:23.319Z,39.12
2022-09-07T15:54:51.705Z,39.14
2022-09-07T16:00:13.505Z,39.53
2022-09-07T16:05:31.571Z,40.12
2022-09-07T16:10:55.901Z,40.99
2022-09-07T16:13:33.776Z,41.33
2022-09-07T16:16:06.132Z,41.80
2022-09-07T16:18:35.328Z,42.17
2022-09-07T16:21:11.890Z,42.56
2022-09-07T16:23:46.528Z,42.53
2022-09-07T16:26:17.119Z,43.16
2022-09-07T16:28:48.322Z,43.25
2022-09-07T16:31:18.232Z,43.01
2022-09-07T16:33:47.056Z,43.29
2022-09-07T16:36:17.453Z,43.51
2022-09-07T16:38:49.096Z,43.48
2022-09-07T16:41:20.628Z,43.98
2022-09-07T16:43:50.354Z,44.01
2022-09-07T16:46:20.958Z,43.78
2022-09-07T16:48:53.887Z,43.67
2022-09-07T16:51:24.595Z,43.74
2022-09-07T16:53:55.175Z,43.66
2022-09-07T16:56:26.963Z,43.55
2022-09-07T16:58:57.250Z,43.75
2022-09-07T17:01:28.062Z,43.44
2022-09-07T17:03:57.526Z,43.84
2022-09-07T17:06:29.695Z,43.49
2022-09-07T17:08:59.698Z,43.37
2022-09-07T17:11:30.858Z,43.45
2022-09-07T17:13:59.771Z,43.67
2022-09-07T17:16:30.383Z,43.66
2022-09-07T17:21:52.170Z,43.94
2022-09-07T17:24:21.102Z,44.07
2022-09-07T17:26:49.530Z,44.19
2022-09-07T17:29:18.427Z,44.18
2022-09-07T17:34:39.038Z,44.60
2022-09-07T17:37:09.088Z,44.98
2022-09-07T17:39:38.319Z,44.88
2022-09-07T17:42:07.380Z,45.15
2022-09-07T17:44:38.317Z,45.44
2022-09-07T17:47:07.079Z,45.35
2022-09-07T17:49:35.753Z,45.52
2022-09-07T17:52:04.876Z,45.26
2022-09-07T17:54:33.582Z,45.26
2022-09-07T17:57:07.957Z,45.29
2022-09-07T18:02:26.650Z,45.26
2022-09-07T18:04:55.190Z,45.38
2022-09-07T18:07:23.588Z,45.28
2022-09-07T18:09:51.989Z,45.33
2022-09-07T18:12:20.423Z,45.47
2022-09-07T18:14:48.846Z,45.94
2022-09-07T18:17:17.307Z,46.43
2022-09-07T18:19:45.748Z,46.36
2022-09-07T18:22:15.309Z,46.51
2022-09-07T18:24:44.271Z,46.66
2022-09-07T18:27:13.086Z,46.79
2022-09-07T18:29:42.839Z,47.16
2022-09-07T18:32:12.189Z,47.53
2022-09-07T18:34:41.623Z,47.79
2022-09-07T18:37:12.500Z,47.73
2022-09-07T18:39:41.337Z,47.88
2022-09-07T18:42:10.903Z,47.87
2022-09-07T18:47:29.791Z,47.98
2022-09-07T18:49:59.642Z,48.10
2022-09-07T18:55:19.878Z,48.26
2022-09-07T18:57:48.924Z,48.26
2022-09-07T19:00:17.917Z,48.43
2022-09-07T19:02:50.640Z,48.59
2022-09-07T19:08:08.465Z,48.71
2022-09-07T19:10:37.659Z,48.73
2022-09-07T19:13:06.499Z,48.84
2022-09-07T19:15:38.761Z,49.04
2022-09-07T19:18:09.257Z,49.03
2022-09-07T19:20:38.467Z,49.16
2022-09-07T19:23:07.065Z,49.40
2022-09-07T19:25:40.784Z,49.65
2022-09-07T19:28:11.351Z,49.82
2022-09-07T19:30:39.791Z,50.08
2022-09-07T19:33:11.436Z,50.18
2022-09-07T19:35:39.873Z,50.29
2022-09-07T19:38:08.532Z,50.40
2022-09-07T19:40:37.107Z,50.87
2022-09-07T19:43:05.817Z,50.82
2022-09-07T19:45:39.154Z,50.80
2022-09-07T19:48:12.288Z,50.96
2022-09-07T19:50:44.146Z,51.05
2022-09-07T19:53:13.065Z,50.57
2022-09-07T19:55:42.170Z,50.84
2022-09-07T19:58:11.883Z,50.88
2022-09-07T20:00:41.039Z,51.17
2022-09-07T20:03:10.056Z,51.02
2022-09-07T20:05:39.767Z,50.80
2022-09-07T20:08:08.648Z,51.06
2022-09-07T20:10:37.073Z,50.87
2022-09-07T20:13:05.456Z,51.20
2022-09-07T20:15:38.838Z,51.30
2022-09-07T20:18:07.517Z,51.11
2022-09-07T20:20:35.993Z,51.24
2022-09-07T20:23:04.385Z,51.09
2022-09-07T20:25:32.749Z,51.03
2022-09-07T20:28:01.249Z,51.22
2022-09-07T20:30:33.757Z,50.88
2022-09-07T20:33:02.320Z,50.98
2022-09-07T20:35:32.373Z,50.98
2022-09-07T20:38:01.949Z,51.32
2022-09-07T20:40:31.530Z,51.42
2022-09-07T20:42:59.969Z,51.62
2022-09-07T20:45:31.763Z,51.76
2022-09-07T20:48:01.136Z,52.08
2022-09-07T20:50:29.513Z,52.11
2022-09-07T20:53:00.677Z,52.17
2022-09-07T20:55:29.091Z,52.46
2022-09-07T20:57:57.532Z,52.34
2022-09-07T21:00:26.068Z,52.45
2022-09-07T21:02:54.526Z,52.41
2022-09-07T21:05:22.937Z,52.34
2022-09-07T21:07:51.357Z,52.32
2022-09-07T21:10:19.886Z,52.34
2022-09-07T21:12:48.287Z,52.79
2022-09-07T21:15:16.982Z,52.91
2022-09-07T21:17:45.424Z,52.64
2022-09-07T21:20:14.445Z,52.68
2022-09-07T21:22:43.081Z,52.87
2022-09-07T21:25:14.248Z,52.97
2022-09-07T21:27:42.619Z,53.16
2022-09-07T21:30:12.905Z,53.06
2022-09-07T21:32:41.340Z,52.94
2022-09-07T21:35:11.754Z,53.00
2022-09-07T21:37:40.216Z,52.78
2022-09-07T21:40:10.567Z,52.66
2022-09-07T21:42:40.234Z,52.79
2022-09-07T21:45:11.247Z,52.88
2022-09-07T21:47:39.941Z,52.84
2022-09-07T21:50:08.758Z,53.19
2022-09-07T21:52:38.120Z,53.39
2022-09-07T21:55:10.986Z,53.41
2022-09-07T21:57:41.390Z,53.67
2022-09-07T22:00:12.263Z,53.76
2022-09-07T22:02:45.221Z,53.62
2022-09-07T22:05:13.687Z,53.69
2022-09-07T22:07:42.015Z,53.92
2022-09-07T22:10:13.347Z,53.94
2022-09-07T22:12:41.817Z,54.02
2022-09-07T22:15:11.091Z,54.00
2022-09-07T22:17:42.317Z,54.32
2022-09-07T22:20:14.284Z,54.30
2022-09-07T22:22:42.777Z,54.35
2022-09-07T22:25:11.279Z,54.50
2022-09-07T22:27:39.731Z,54.70
2022-09-07T22:30:11.014Z,54.62
2022-09-07T22:32:39.568Z,54.87
2022-09-07T22:35:09.617Z,55.07
2022-09-07T22:37:37.982Z,55.09
2022-09-07T22:40:08.477Z,55.09
2022-09-07T22:42:37.347Z,55.19
2022-09-07T22:45:07.864Z,55.20
2022-09-07T22:47:36.272Z,55.23
2022-09-07T22:50:06.230Z,55.17
2022-09-07T22:52:36.814Z,55.32
2022-09-07T22:55:06.708Z,55.15
2022-09-07T22:57:35.076Z,55.20
2022-09-07T23:00:05.788Z,55.23
2022-09-07T23:02:34.263Z,55.12
2022-09-07T23:05:03.548Z,55.37
2022-09-07T23:07:31.994Z,55.35
2022-09-07T23:10:02.973Z,55.24
2022-09-07T23:12:31.396Z,55.20
2022-09-07T23:14:59.774Z,55.23
2022-09-07T23:17:28.110Z,55.40
2022-09-07T23:19:56.466Z,55.53
2022-09-07T23:22:24.946Z,55.46
2022-09-07T23:24:53.350Z,55.60
2022-09-07T23:27:21.715Z,55.40
2022-09-07T23:29:50.238Z,55.57
2022-09-07T23:32:18.588Z,55.66
2022-09-07T23:34:47.064Z,55.79
2022-09-07T23:37:15.566Z,55.78
2022-09-07T23:39:44.010Z,55.60
2022-09-07T23:42:12.443Z,55.64
2022-09-07T23:44:40.915Z,55.75
2022-09-07T23:47:09.287Z,55.81
2022-09-07T23:49:37.704Z,55.79
2022-09-07T23:52:06.358Z,56.03
2022-09-07T23:54:34.767Z,55.99
2022-09-07T23:57:03.340Z,56.05
2022-09-07T23:59:33.259Z,55.89
